sensor_id;sensor_type;location;lat;lon;timestamp;pressure;altitude;pressure_sealevel;temperature;humidity
64610;BME280;51019;46.090;6.350;2023-01-26T00:01:33;96996.97;;;-0.85;100.00
64610;BME280;51019;46.090;6.350;2023-01-26T00:04:00;96979.31;;;-0.94;100.00
64610;BME280;51019;46.090;6.350;2023-01-26T00:06:28;96963.47;;;-1.05;100.00
64610;BME280;51019;46.090;6.350;2023-01-26T00:08:59;96952.16;;;-1.01;100.00
64610;BME280;51019;46.090;6.350;2023-01-26T00:11:27;96972.38;;;-0.92;100.00
64610;BME280;51019;46.090;6.350;2023-01-26T00:13:58;96982.47;;;-0.87;100.00
64610;BME280;51019;46.090;6.350;2023-01-26T00:16:26;96970.38;;;-0.85;100.00
64610;BME280;51019;46.090;6.350;2023-01-26T00:18:53;96961.78;;;-0.84;100.00
64610;BME280;51019;46.090;6.350;2023-01-26T00:21:22;96962.84;;;-0.90;100.00
64610;BME280;51019;46.090;6.350;2023-01-26T00:23:52;96963.56;;;-0.86;100.00
64610;BME280;51019;46.090;6.350;2023-01-26T00:26:23;96957.63;;;-0.88;100.00
64610;BME280;51019;46.090;6.350;2023-01-26T00:28:53;96949.91;;;-0.88;100.00
64610;BME280;51019;46.090;6.350;2023-01-26T00:31:22;96958.41;;;-0.86;100.00
64610;BME280;51019;46.090;6.350;2023-01-26T00:33:50;96955.66;;;-0.82;100.00
64610;BME280;51019;46.090;6.350;2023-01-26T00:36:18;96952.53;;;-0.90;100.00
64610;BME280;51019;46.090;6.350;2023-01-26T00:38:46;96958.34;;;-0.85;100.00
64610;BME280;51019;46.090;6.350;2023-01-26T00:41:14;96958.09;;;-0.79;100.00
64610;BME280;51019;46.090;6.350;2023-01-26T00:43:57;96951.34;;;-0.81;100.00
64610;BME280;51019;46.090;6.350;2023-01-26T00:46:26;96937.31;;;-0.94;100.00
64610;BME280;51019;46.090;6.350;2023-01-26T00:48:54;96947.50;;;-0.91;100.00
64610;BME280;51019;46.090;6.350;2023-01-26T00:51:22;96937.09;;;-0.90;100.00
64610;BME280;51019;46.090;6.350;2023-01-26T00:53:50;96918.06;;;-1.06;100.00
64610;BME280;51019;46.090;6.350;2023-01-26T00:56:17;96938.28;;;-0.97;100.00
64610;BME280;51019;46.090;6.350;2023-01-26T00:58:45;96927.69;;;-1.11;100.00
64610;BME280;51019;46.090;6.350;2023-01-26T01:01:14;96921.66;;;-1.10;100.00
64610;BME280;51019;46.090;6.350;2023-01-26T01:03:41;96927.81;;;-0.92;100.00
64610;BME280;51019;46.090;6.350;2023-01-26T01:06:10;96932.13;;;-0.93;100.00
64610;BME280;51019;46.090;6.350;2023-01-26T01:08:37;96936.09;;;-0.86;100.00
64610;BME280;51019;46.090;6.350;2023-01-26T01:11:08;96925.03;;;-0.88;100.00
64610;BME280;51019;46.090;6.350;2023-01-26T01:13:37;96911.66;;;-0.96;100.00
64610;BME280;51019;46.090;6.350;2023-01-26T01:16:06;96896.66;;;-1.06;100.00
64610;BME280;51019;46.090;6.350;2023-01-26T01:18:37;96911.91;;;-1.02;100.00
64610;BME280;51019;46.090;6.350;2023-01-26T01:21:06;96898.50;;;-1.10;100.00
64610;BME280;51019;46.090;6.350;2023-01-26T01:23:33;96912.09;;;-1.06;100.00
64610;BME280;51019;46.090;6.350;2023-01-26T01:26:02;96914.66;;;-1.06;100.00
64610;BME280;51019;46.090;6.350;2023-01-26T01:28:30;96918.78;;;-1.02;100.00
64610;BME280;51019;46.090;6.350;2023-01-26T01:30:58;96912.53;;;-0.97;100.00
64610;BME280;51019;46.090;6.350;2023-01-26T01:33:26;96914.03;;;-0.91;100.00
64610;BME280;51019;46.090;6.350;2023-01-26T01:36:00;96909.78;;;-0.92;100.00
64610;BME280;51019;46.090;6.350;2023-01-26T01:38:28;96900.06;;;-1.06;100.00
64610;BME280;51019;46.090;6.350;2023-01-26T01:40:56;96882.50;;;-1.17;100.00
64610;BME280;51019;46.090;6.350;2023-01-26T01:43:26;96898.22;;;-1.02;100.00
64610;BME280;51019;46.090;6.350;2023-01-26T01:45:55;96895.44;;;-0.98;100.00
64610;BME280;51019;46.090;6.350;2023-01-26T01:48:25;96910.16;;;-1.01;100.00
64610;BME280;51019;46.090;6.350;2023-01-26T01:51:01;96902.97;;;-1.14;100.00
64610;BME280;51019;46.090;6.350;2023-01-26T01:53:34;96900.06;;;-1.06;100.00
64610;BME280;51019;46.090;6.350;2023-01-26T01:56:07;96901.03;;;-1.08;100.00
64610;BME280;51019;46.090;6.350;2023-01-26T01:58:40;96890.16;;;-1.15;100.00
64610;BME280;51019;46.090;6.350;2023-01-26T02:01:14;96889.38;;;-1.17;100.00
64610;BME280;51019;46.090;6.350;2023-01-26T02:03:44;96894.31;;;-1.13;100.00
64610;BME280;51019;46.090;6.350;2023-01-26T02:06:18;96871.50;;;-1.20;100.00
64610;BME280;51019;46.090;6.350;2023-01-26T02:08:51;96878.31;;;-1.19;100.00
64610;BME280;51019;46.090;6.350;2023-01-26T02:11:22;96884.34;;;-1.20;100.00
64610;BME280;51019;46.090;6.350;2023-01-26T02:13:51;96865.00;;;-1.29;100.00
64610;BME280;51019;46.090;6.350;2023-01-26T02:16:19;96885.91;;;-1.16;100.00
64610;BME280;51019;46.090;6.350;2023-01-26T02:18:47;96867.50;;;-1.27;100.00
64610;BME280;51019;46.090;6.350;2023-01-26T02:21:18;96883.28;;;-1.15;100.00
64610;BME280;51019;46.090;6.350;2023-01-26T02:23:56;96883.44;;;-1.19;100.00
64610;BME280;51019;46.090;6.350;2023-01-26T02:26:29;96885.78;;;-1.13;100.00
64610;BME280;51019;46.090;6.350;2023-01-26T02:28:59;96880.88;;;-1.19;100.00
64610;BME280;51019;46.090;6.350;2023-01-26T02:31:28;96874.00;;;-1.19;100.00
64610;BME280;51019;46.090;6.350;2023-01-26T02:33:57;96875.34;;;-1.30;100.00
64610;BME280;51019;46.090;6.350;2023-01-26T02:36:27;96844.91;;;-1.41;100.00
64610;BME280;51019;46.090;6.350;2023-01-26T02:39:16;96874.00;;;-1.19;100.00
64610;BME280;51019;46.090;6.350;2023-01-26T02:41:49;96871.16;;;-1.13;100.00
64610;BME280;51019;46.090;6.350;2023-01-26T02:44:35;96873.81;;;-1.14;100.00
64610;BME280;51019;46.090;6.350;2023-01-26T02:47:10;96874.91;;;-1.20;100.00
64610;BME280;51019;46.090;6.350;2023-01-26T02:49:38;96874.28;;;-1.25;100.00
64610;BME280;51019;46.090;6.350;2023-01-26T02:52:15;96864.16;;;-1.09;100.00
64610;BME280;51019;46.090;6.350;2023-01-26T02:54:43;96838.31;;;-1.26;100.00
64610;BME280;51019;46.090;6.350;2023-01-26T02:57:30;96872.94;;;-1.13;100.00
64610;BME280;51019;46.090;6.350;2023-01-26T02:59:59;96866.63;;;-1.26;100.00
64610;BME280;51019;46.090;6.350;2023-01-26T03:02:26;96842.97;;;-1.56;100.00
64610;BME280;51019;46.090;6.350;2023-01-26T03:04:54;96866.00;;;-1.33;100.00
64610;BME280;51019;46.090;6.350;2023-01-26T03:07:21;96780.41;;;-1.77;100.00
64610;BME280;51019;46.090;6.350;2023-01-26T03:09:49;96854.25;;;-1.38;100.00
64610;BME280;51019;46.090;6.350;2023-01-26T03:12:16;96861.97;;;-1.38;100.00
64610;BME280;51019;46.090;6.350;2023-01-26T03:14:46;96828.16;;;-1.29;100.00
64610;BME280;51019;46.090;6.350;2023-01-26T03:17:33;96789.63;;;-1.71;100.00
64610;BME280;51019;46.090;6.350;2023-01-26T03:20:01;96847.94;;;-1.11;100.00
64610;BME280;51019;46.090;6.350;2023-01-26T03:22:47;96842.41;;;-1.22;100.00
64610;BME280;51019;46.090;6.350;2023-01-26T03:25:35;96838.56;;;-1.12;100.00
64610;BME280;51019;46.090;6.350;2023-01-26T03:28:20;96831.50;;;-1.27;100.00
64610;BME280;51019;46.090;6.350;2023-01-26T03:30:50;96821.72;;;-1.39;100.00
64610;BME280;51019;46.090;6.350;2023-01-26T03:33:19;96822.69;;;-1.42;100.00
64610;BME280;51019;46.090;6.350;2023-01-26T03:35:47;96823.66;;;-1.24;100.00
64610;BME280;51019;46.090;6.350;2023-01-26T03:38:15;96824.75;;;-1.30;100.00
64610;BME280;51019;46.090;6.350;2023-01-26T03:40:42;96804.94;;;-1.48;100.00
64610;BME280;51019;46.090;6.350;2023-01-26T03:43:26;96820.56;;;-1.32;100.00
64610;BME280;51019;46.090;6.350;2023-01-26T03:46:12;96797.25;;;-1.48;100.00
64610;BME280;51019;46.090;6.350;2023-01-26T03:48:56;96817.53;;;-1.42;100.00
64610;BME280;51019;46.090;6.350;2023-01-26T03:51:41;96819.03;;;-1.36;100.00
64610;BME280;51019;46.090;6.350;2023-01-26T03:54:25;96819.88;;;-1.36;100.00
64610;BME280;51019;46.090;6.350;2023-01-26T03:57:10;96805.53;;;-1.21;100.00
64610;BME280;51019;46.090;6.350;2023-01-26T03:59:38;96813.75;;;-1.33;100.00
64610;BME280;51019;46.090;6.350;2023-01-26T04:02:11;96802.94;;;-1.41;100.00
64610;BME280;51019;46.090;6.350;2023-01-26T04:04:56;96802.56;;;-1.32;100.00
64610;BME280;51019;46.090;6.350;2023-01-26T04:07:40;96805.91;;;-1.30;100.00
64610;BME280;51019;46.090;6.350;2023-01-26T04:10:26;96804.50;;;-1.37;100.00
64610;BME280;51019;46.090;6.350;2023-01-26T04:12:55;96803.78;;;-1.21;100.00
64610;BME280;51019;46.090;6.350;2023-01-26T04:15:39;96789.69;;;-1.32;100.00
64610;BME280;51019;46.090;6.350;2023-01-26T04:18:25;96790.47;;;-1.30;100.00
64610;BME280;51019;46.090;6.350;2023-01-26T04:21:09;96789.59;;;-1.29;100.00
64610;BME280;51019;46.090;6.350;2023-01-26T04:23:57;96786.19;;;-1.30;100.00
64610;BME280;51019;46.090;6.350;2023-01-26T04:26:26;96790.53;;;-1.32;100.00
64610;BME280;51019;46.090;6.350;2023-01-26T04:28:59;96748.31;;;-1.67;100.00
64610;BME280;51019;46.090;6.350;2023-01-26T04:31:28;96790.47;;;-1.30;100.00
64610;BME280;51019;46.090;6.350;2023-01-26T04:33:57;96790.47;;;-1.30;100.00
64610;BME280;51019;46.090;6.350;2023-01-26T04:36:27;96787.13;;;-1.32;100.00
64610;BME280;51019;46.090;6.350;2023-01-26T04:38:56;96775.78;;;-1.47;100.00
64610;BME280;51019;46.090;6.350;2023-01-26T04:41:25;96781.81;;;-1.48;100.00
64610;BME280;51019;46.090;6.350;2023-01-26T04:43:52;96780.97;;;-1.49;100.00
64610;BME280;51019;46.090;6.350;2023-01-26T04:46:21;96780.47;;;-1.36;100.00
64610;BME280;51019;46.090;6.350;2023-01-26T04:48:50;96776.72;;;-1.29;100.00
64610;BME280;51019;46.090;6.350;2023-01-26T04:51:21;96773.69;;;-1.19;100.00
64610;BME280;51019;46.090;6.350;2023-01-26T04:53:48;96768.34;;;-1.34;100.00
64610;BME280;51019;46.090;6.350;2023-01-26T04:56:20;96776.72;;;-1.29;100.00
64610;BME280;51019;46.090;6.350;2023-01-26T04:58:49;96760.00;;;-1.39;100.00
64610;BME280;51019;46.090;6.350;2023-01-26T05:01:17;96752.03;;;-1.54;100.00
64610;BME280;51019;46.090;6.350;2023-01-26T05:03:46;96762.66;;;-1.41;100.00
64610;BME280;51019;46.090;6.350;2023-01-26T05:06:14;96766.25;;;-1.45;100.00
64610;BME280;51019;46.090;6.350;2023-01-26T05:08:45;96761.81;;;-1.41;100.00
64610;BME280;51019;46.090;6.350;2023-01-26T05:11:13;96764.50;;;-1.44;100.00
64610;BME280;51019;46.090;6.350;2023-01-26T05:13:41;96758.06;;;-1.34;100.00
64610;BME280;51019;46.090;6.350;2023-01-26T05:16:11;96759.50;;;-1.48;100.00
64610;BME280;51019;46.090;6.350;2023-01-26T05:18:39;96746.50;;;-1.44;100.00
64610;BME280;51019;46.090;6.350;2023-01-26T05:21:09;96739.19;;;-1.54;100.00
64610;BME280;51019;46.090;6.350;2023-01-26T05:23:37;96672.38;;;-1.94;100.00
64610;BME280;51019;46.090;6.350;2023-01-26T05:26:06;96753.44;;;-1.47;100.00
64610;BME280;51019;46.090;6.350;2023-01-26T05:28:35;96746.38;;;-1.62;100.00
64610;BME280;51019;46.090;6.350;2023-01-26T05:31:02;96716.91;;;-1.73;100.00
64610;BME280;51019;46.090;6.350;2023-01-26T05:33:30;96750.38;;;-1.55;100.00
64610;BME280;51019;46.090;6.350;2023-01-26T05:36:02;96749.03;;;-1.63;100.00
64610;BME280;51019;46.090;6.350;2023-01-26T05:38:31;96749.06;;;-1.65;100.00
64610;BME280;51019;46.090;6.350;2023-01-26T05:40:59;96746.56;;;-1.66;100.00
64610;BME280;51019;46.090;6.350;2023-01-26T05:43:29;96742.97;;;-1.62;100.00
64610;BME280;51019;46.090;6.350;2023-01-26T05:45:56;96737.00;;;-1.63;100.00
64610;BME280;51019;46.090;6.350;2023-01-26T05:48:24;96735.34;;;-1.64;100.00
64610;BME280;51019;46.090;6.350;2023-01-26T05:50:55;96740.59;;;-1.67;100.00
64610;BME280;51019;46.090;6.350;2023-01-26T05:53:26;96743.81;;;-1.62;100.00
64610;BME280;51019;46.090;6.350;2023-01-26T05:55:54;96741.38;;;-1.65;100.00
64610;BME280;51019;46.090;6.350;2023-01-26T05:58:23;96742.88;;;-1.59;100.00
64610;BME280;51019;46.090;6.350;2023-01-26T06:00:53;96716.69;;;-1.69;100.00
64610;BME280;51019;46.090;6.350;2023-01-26T06:03:21;96729.03;;;-1.57;100.00
64610;BME280;51019;46.090;6.350;2023-01-26T06:05:52;96718.44;;;-1.69;100.00
64610;BME280;51019;46.090;6.350;2023-01-26T06:08:20;96740.84;;;-1.53;100.00
64610;BME280;51019;46.090;6.350;2023-01-26T06:10:49;96725.16;;;-1.67;100.00
64610;BME280;51019;46.090;6.350;2023-01-26T06:13:17;96733.78;;;-1.68;100.00
64610;BME280;51019;46.090;6.350;2023-01-26T06:15:45;96623.25;;;-2.27;100.00
64610;BME280;51019;46.090;6.350;2023-01-26T06:18:15;96718.63;;;-1.74;100.00
64610;BME280;51019;46.090;6.350;2023-01-26T06:20:43;96730.97;;;-1.62;100.00
64610;BME280;51019;46.090;6.350;2023-01-26T06:23:11;96725.94;;;-1.65;100.00
64610;BME280;51019;46.090;6.350;2023-01-26T06:25:39;96727.44;;;-1.59;100.00
64610;BME280;51019;46.090;6.350;2023-01-26T06:28:09;96723.88;;;-1.57;100.00
64610;BME280;51019;46.090;6.350;2023-01-26T06:30:37;96722.41;;;-1.62;100.00
64610;BME280;51019;46.090;6.350;2023-01-26T06:33:04;96726.44;;;-1.57;100.00
64610;BME280;51019;46.090;6.350;2023-01-26T06:35:34;96725.63;;;-1.57;100.00
64610;BME280;51019;46.090;6.350;2023-01-26T06:38:02;96717.00;;;-1.76;100.00
64610;BME280;51019;46.090;6.350;2023-01-26T06:40:32;96725.94;;;-1.65;100.00
64610;BME280;51019;46.090;6.350;2023-01-26T06:43:00;96719.06;;;-1.64;100.00
64610;BME280;51019;46.090;6.350;2023-01-26T06:45:28;96721.81;;;-1.69;100.00
64610;BME280;51019;46.090;6.350;2023-01-26T06:47:57;96715.16;;;-1.73;100.00
64610;BME280;51019;46.090;6.350;2023-01-26T06:50:26;96721.66;;;-1.64;100.00
64610;BME280;51019;46.090;6.350;2023-01-26T06:53:02;96707.56;;;-1.76;100.00
64610;BME280;51019;46.090;6.350;2023-01-26T06:55:37;96726.44;;;-1.57;100.00
64610;BME280;51019;46.090;6.350;2023-01-26T06:58:06;96721.47;;;-1.60;100.00
64610;BME280;51019;46.090;6.350;2023-01-26T07:00:34;96722.31;;;-1.59;100.00
64610;BME280;51019;46.090;6.350;2023-01-26T07:03:05;96711.41;;;-1.66;100.00
64610;BME280;51019;46.090;6.350;2023-01-26T07:05:36;96717.84;;;-1.56;100.00
64610;BME280;51019;46.090;6.350;2023-01-26T07:08:05;96722.41;;;-1.62;100.00
64610;BME280;51019;46.090;6.350;2023-01-26T07:10:37;96722.53;;;-1.65;100.00
64610;BME280;51019;46.090;6.350;2023-01-26T07:13:10;96725.72;;;-1.59;100.00
64610;BME280;51019;46.090;6.350;2023-01-26T07:15:40;96731.34;;;-1.71;100.00
64610;BME280;51019;46.090;6.350;2023-01-26T07:18:08;96725.22;;;-1.68;100.00
64610;BME280;51019;46.090;6.350;2023-01-26T07:20:36;96723.25;;;-1.62;100.00
64610;BME280;51019;46.090;6.350;2023-01-26T07:23:05;96691.66;;;-1.84;100.00
64610;BME280;51019;46.090;6.350;2023-01-26T07:25:32;96709.19;;;-1.73;100.00
64610;BME280;51019;46.090;6.350;2023-01-26T07:28:00;96710.66;;;-1.68;100.00
64610;BME280;51019;46.090;6.350;2023-01-26T07:30:27;96715.66;;;-1.65;100.00
64610;BME280;51019;46.090;6.350;2023-01-26T07:32:58;96712.69;;;-1.56;100.00
64610;BME280;51019;46.090;6.350;2023-01-26T07:35:26;96712.53;;;-1.71;100.00
64610;BME280;51019;46.090;6.350;2023-01-26T07:37:55;96724.41;;;-1.69;100.00
64610;BME280;51019;46.090;6.350;2023-01-26T07:40:33;96719.97;;;-1.65;100.00
64610;BME280;51019;46.090;6.350;2023-01-26T07:43:01;96724.78;;;-1.58;100.00
64610;BME280;51019;46.090;6.350;2023-01-26T07:45:29;96720.19;;;-1.50;100.00
64610;BME280;51019;46.090;6.350;2023-01-26T07:47:59;96719.00;;;-1.63;100.00
64610;BME280;51019;46.090;6.350;2023-01-26T07:50:29;96725.81;;;-1.62;100.00
64610;BME280;51019;46.090;6.350;2023-01-26T07:52:59;96725.81;;;-1.62;100.00
64610;BME280;51019;46.090;6.350;2023-01-26T07:55:30;96694.91;;;-1.80;100.00
64610;BME280;51019;46.090;6.350;2023-01-26T07:58:00;96670.09;;;-2.02;100.00
64610;BME280;51019;46.090;6.350;2023-01-26T08:00:28;96716.28;;;-1.80;100.00
64610;BME280;51019;46.090;6.350;2023-01-26T08:02:56;96718.75;;;-1.77;100.00
64610;BME280;51019;46.090;6.350;2023-01-26T08:05:25;96710.84;;;-1.72;100.00
64610;BME280;51019;46.090;6.350;2023-01-26T08:07:58;96695.88;;;-1.83;100.00
64610;BME280;51019;46.090;6.350;2023-01-26T08:10:26;96717.47;;;-1.67;100.00
64610;BME280;51019;46.090;6.350;2023-01-26T08:12:56;96709.06;;;-1.70;100.00
64610;BME280;51019;46.090;6.350;2023-01-26T08:15:28;96717.91;;;-1.77;100.00
64610;BME280;51019;46.090;6.350;2023-01-26T08:17:56;96702.50;;;-1.77;100.00
64610;BME280;51019;46.090;6.350;2023-01-26T08:20:24;96716.84;;;-1.72;100.00
64610;BME280;51019;46.090;6.350;2023-01-26T08:22:53;96714.31;;;-1.73;100.00
64610;BME280;51019;46.090;6.350;2023-01-26T08:25:23;96717.78;;;-1.74;100.00
64610;BME280;51019;46.090;6.350;2023-01-26T08:27:57;96654.91;;;-2.06;100.00
64610;BME280;51019;46.090;6.350;2023-01-26T08:30:30;96707.13;;;-1.65;100.00
64610;BME280;51019;46.090;6.350;2023-01-26T08:33:08;96697.69;;;-1.65;100.00
64610;BME280;51019;46.090;6.350;2023-01-26T08:35:36;96631.91;;;-2.09;100.00
64610;BME280;51019;46.090;6.350;2023-01-26T08:38:04;96687.66;;;-1.71;100.00
64610;BME280;51019;46.090;6.350;2023-01-26T08:40:32;96690.34;;;-1.74;100.00
64610;BME280;51019;46.090;6.350;2023-01-26T08:43:02;96691.44;;;-1.79;100.00
64610;BME280;51019;46.090;6.350;2023-01-26T08:45:39;96701.25;;;-1.69;100.00
64610;BME280;51019;46.090;6.350;2023-01-26T08:48:09;96691.47;;;-1.59;100.00
64610;BME280;51019;46.090;6.350;2023-01-26T08:50:40;96698.44;;;-1.63;100.00
64610;BME280;51019;46.090;6.350;2023-01-26T08:53:09;96695.59;;;-1.57;100.00
64610;BME280;51019;46.090;6.350;2023-01-26T08:55:48;96701.84;;;-1.62;100.00
64610;BME280;51019;46.090;6.350;2023-01-26T08:58:18;96685.03;;;-1.69;100.00
64610;BME280;51019;46.090;6.350;2023-01-26T09:00:50;96707.03;;;-1.43;100.00
64610;BME280;51019;46.090;6.350;2023-01-26T09:03:21;96683.81;;;-1.61;100.00
64610;BME280;51019;46.090;6.350;2023-01-26T09:05:52;96692.16;;;-1.56;100.00
64610;BME280;51019;46.090;6.350;2023-01-26T09:08:21;96693.56;;;-1.49;100.00
64610;BME280;51019;46.090;6.350;2023-01-26T09:10:55;96697.03;;;-1.50;100.00
64610;BME280;51019;46.090;6.350;2023-01-26T09:13:25;96710.28;;;-1.38;100.00
64610;BME280;51019;46.090;6.350;2023-01-26T09:16:06;96707.53;;;-1.35;100.00
64610;BME280;51019;46.090;6.350;2023-01-26T09:18:39;96710.16;;;-1.17;100.00
64610;BME280;51019;46.090;6.350;2023-01-26T09:21:08;96707.84;;;-1.23;100.00
64610;BME280;51019;46.090;6.350;2023-01-26T09:23:38;96701.31;;;-1.30;100.00
64610;BME280;51019;46.090;6.350;2023-01-26T09:26:08;96709.75;;;-1.26;100.00
64610;BME280;51019;46.090;6.350;2023-01-26T09:28:37;96696.34;;;-1.34;100.00
64610;BME280;51019;46.090;6.350;2023-01-26T09:31:12;96680.28;;;-1.19;100.00
64610;BME280;51019;46.090;6.350;2023-01-26T09:33:53;96704.34;;;-1.01;100.00
64610;BME280;51019;46.090;6.350;2023-01-26T09:36:25;96710.72;;;-1.10;100.00
64610;BME280;51019;46.090;6.350;2023-01-26T09:38:53;96708.94;;;-1.08;100.00
64610;BME280;51019;46.090;6.350;2023-01-26T09:41:41;96689.78;;;-1.21;100.00
64610;BME280;51019;46.090;6.350;2023-01-26T09:44:26;96708.31;;;-1.13;100.00
64610;BME280;51019;46.090;6.350;2023-01-26T09:47:03;96702.66;;;-1.21;100.00
64610;BME280;51019;46.090;6.350;2023-01-26T09:49:45;96705.56;;;-1.29;100.00
64610;BME280;51019;46.090;6.350;2023-01-26T09:52:22;96710.88;;;-1.13;100.00
64610;BME280;51019;46.090;6.350;2023-01-26T09:54:58;96706.84;;;-1.00;100.00
64610;BME280;51019;46.090;6.350;2023-01-26T09:57:34;96695.66;;;-0.99;100.00
64610;BME280;51019;46.090;6.350;2023-01-26T10:00:21;96697.69;;;-1.05;100.00
64610;BME280;51019;46.090;6.350;2023-01-26T10:03:02;96708.44;;;-0.97;100.00
64610;BME280;51019;46.090;6.350;2023-01-26T10:05:40;96707.69;;;-0.99;100.00
64610;BME280;51019;46.090;6.350;2023-01-26T10:08:11;96699.91;;;-0.98;100.00
64610;BME280;51019;46.090;6.350;2023-01-26T10:10:45;96693.78;;;-1.14;100.00
64610;BME280;51019;46.090;6.350;2023-01-26T10:13:15;96702.41;;;-0.96;100.00
64610;BME280;51019;46.090;6.350;2023-01-26T10:15:50;96705.47;;;-0.69;100.00
64610;BME280;51019;46.090;6.350;2023-01-26T10:18:28;96701.78;;;-0.83;100.00
64610;BME280;51019;46.090;6.350;2023-01-26T10:21:02;96699.97;;;-0.99;100.00
64610;BME280;51019;46.090;6.350;2023-01-26T10:23:34;96707.81;;;-0.65;100.00
64610;BME280;51019;46.090;6.350;2023-01-26T10:26:10;96713.69;;;-0.61;100.00
64610;BME280;51019;46.090;6.350;2023-01-26T10:28:48;96717.84;;;-0.78;100.00
64610;BME280;51019;46.090;6.350;2023-01-26T10:31:18;96692.03;;;-1.14;100.00
64610;BME280;51019;46.090;6.350;2023-01-26T10:33:59;96713.09;;;-1.05;100.00
64610;BME280;51019;46.090;6.350;2023-01-26T10:36:31;96717.72;;;-0.93;100.00
64610;BME280;51019;46.090;6.350;2023-01-26T10:39:04;96702.34;;;-1.14;100.00
64610;BME280;51019;46.090;6.350;2023-01-26T10:41:34;96709.69;;;-1.06;100.00
64610;BME280;51019;46.090;6.350;2023-01-26T10:44:09;96714.56;;;-1.00;100.00
64610;BME280;51019;46.090;6.350;2023-01-26T10:46:44;96653.28;;;-1.48;100.00
64610;BME280;51019;46.090;6.350;2023-01-26T10:49:27;96698.91;;;-1.14;100.00
64610;BME280;51019;46.090;6.350;2023-01-26T10:52:07;96701.41;;;-1.13;100.00
64610;BME280;51019;46.090;6.350;2023-01-26T10:54:42;96696.13;;;-1.10;100.00
64610;BME280;51019;46.090;6.350;2023-01-26T10:57:26;96684.75;;;-0.85;100.00
64610;BME280;51019;46.090;6.350;2023-01-26T10:59:58;96689.69;;;-0.81;100.00
64610;BME280;51019;46.090;6.350;2023-01-26T11:02:34;96687.97;;;-0.80;100.00
64610;BME280;51019;46.090;6.350;2023-01-26T11:05:19;96684.69;;;-0.84;100.00
64610;BME280;51019;46.090;6.350;2023-01-26T11:07:49;96681.53;;;-0.71;100.00
64610;BME280;51019;46.090;6.350;2023-01-26T11:10:27;96678.84;;;-0.68;100.00
64610;BME280;51019;46.090;6.350;2023-01-26T11:13:06;96687.25;;;-0.65;100.00
64610;BME280;51019;46.090;6.350;2023-01-26T11:15:59;96687.81;;;-0.58;100.00
64610;BME280;51019;46.090;6.350;2023-01-26T11:18:36;96671.19;;;-0.89;100.00
64610;BME280;51019;46.090;6.350;2023-01-26T11:21:18;96688.06;;;-0.64;100.00
64610;BME280;51019;46.090;6.350;2023-01-26T11:23:51;96679.06;;;-0.92;100.00
64610;BME280;51019;46.090;6.350;2023-01-26T11:29:44;96680.97;;;-0.97;100.00
64610;BME280;51019;46.090;6.350;2023-01-26T11:32:21;96669.84;;;-0.97;100.00
64610;BME280;51019;46.090;6.350;2023-01-26T11:35:03;96675.00;;;-0.79;100.00
64610;BME280;51019;46.090;6.350;2023-01-26T11:37:50;96673.63;;;-0.86;100.00
64610;BME280;51019;46.090;6.350;2023-01-26T11:40:31;96659.22;;;-0.90;100.00
64610;BME280;51019;46.090;6.350;2023-01-26T11:43:26;96663.97;;;-0.81;100.00
64610;BME280;51019;46.090;6.350;2023-01-26T11:46:07;96663.56;;;-0.54;100.00
64610;BME280;51019;46.090;6.350;2023-01-26T11:48:53;96628.59;;;-0.58;100.00
64610;BME280;51019;46.090;6.350;2023-01-26T11:51:41;96667.16;;;-0.40;100.00
64610;BME280;51019;46.090;6.350;2023-01-26T11:54:32;96661.88;;;-0.37;100.00
64610;BME280;51019;46.090;6.350;2023-01-26T11:57:13;96654.25;;;-0.04;99.13
64610;BME280;51019;46.090;6.350;2023-01-26T11:59:47;96662.97;;;-0.23;99.76
64610;BME280;51019;46.090;6.350;2023-01-26T12:02:26;96651.50;;;-0.35;100.00
64610;BME280;51019;46.090;6.350;2023-01-26T12:04:56;96646.22;;;-0.15;100.00
64610;BME280;51019;46.090;6.350;2023-01-26T12:07:29;96617.50;;;-0.07;98.53
64610;BME280;51019;46.090;6.350;2023-01-26T12:10:28;96634.09;;;0.05;99.65
64610;BME280;51019;46.090;6.350;2023-01-26T12:13:06;96617.44;;;-0.23;100.00
64610;BME280;51019;46.090;6.350;2023-01-26T12:15:55;96627.59;;;-0.03;100.00
64610;BME280;51019;46.090;6.350;2023-01-26T12:18:28;96625.00;;;0.32;98.76
64610;BME280;51019;46.090;6.350;2023-01-26T12:21:04;96618.41;;;0.09;99.26
64610;BME280;51019;46.090;6.350;2023-01-26T12:23:50;96581.56;;;0.07;98.58
64610;BME280;51019;46.090;6.350;2023-01-26T12:26:30;96609.19;;;-0.12;100.00
64610;BME280;51019;46.090;6.350;2023-01-26T12:29:04;96610.28;;;0.17;100.00
64610;BME280;51019;46.090;6.350;2023-01-26T12:31:44;96612.06;;;0.49;100.00
64610;BME280;51019;46.090;6.350;2023-01-26T12:34:13;96610.97;;;0.03;100.00
64610;BME280;51019;46.090;6.350;2023-01-26T12:36:49;96616.13;;;0.03;100.00
64610;BME280;51019;46.090;6.350;2023-01-26T12:39:37;96614.53;;;0.18;100.00
64610;BME280;51019;46.090;6.350;2023-01-26T12:42:33;96615.88;;;0.42;99.64
64610;BME280;51019;46.090;6.350;2023-01-26T12:45:11;96611.53;;;0.76;98.42
64610;BME280;51019;46.090;6.350;2023-01-26T12:47:45;96609.75;;;0.60;99.81
64610;BME280;51019;46.090;6.350;2023-01-26T12:50:24;96589.44;;;0.21;99.28
64610;BME280;51019;46.090;6.350;2023-01-26T12:52:55;96591.78;;;0.59;94.40
64610;BME280;51019;46.090;6.350;2023-01-26T12:55:26;96604.56;;;0.45;94.78
64610;BME280;51019;46.090;6.350;2023-01-26T12:58:01;96598.88;;;0.38;96.37
64610;BME280;51019;46.090;6.350;2023-01-26T13:00:32;96590.16;;;0.41;96.52
64610;BME280;51019;46.090;6.350;2023-01-26T13:03:02;96586.69;;;0.42;95.93
64610;BME280;51019;46.090;6.350;2023-01-26T13:05:36;96581.25;;;0.46;97.65
64610;BME280;51019;46.090;6.350;2023-01-26T13:08:47;96585.84;;;0.41;96.58
64610;BME280;51019;46.090;6.350;2023-01-26T13:11:42;96583.75;;;0.48;96.12
64610;BME280;51019;46.090;6.350;2023-01-26T13:14:32;96557.16;;;0.47;95.83
64610;BME280;51019;46.090;6.350;2023-01-26T13:17:40;96578.66;;;0.63;95.90
64610;BME280;51019;46.090;6.350;2023-01-26T13:23:49;96575.88;;;0.51;95.74
64610;BME280;51019;46.090;6.350;2023-01-26T13:26:23;96571.97;;;0.59;95.30
64610;BME280;51019;46.090;6.350;2023-01-26T13:35:30;96567.19;;;0.85;94.22
64610;BME280;51019;46.090;6.350;2023-01-26T13:38:08;96570.25;;;0.76;94.10